Hansa Limburg — A8IH6 — position and weather

sailwx.info

Track history (hours):
 
Tides and Currents Weather Stations Pressure Air Temp Water Temp Dewpoint Dewpoint Depression Visibility Wind Speed Wind Dir Waves Ship Positions

Hansa Limburg

Last reported at 2016-Jul-24 09:31 UTC. Time now 2016-Jul-24 18:35 UTC.
Position N 59°29' E 022°25'.

Length 175.5 m; beam 27.4 m; draft 10.9 m.

Type: Ship (hazmat cat A). MMSI: 636090980.

Date/timePositionNaut miles runAvg speedWind from/ knotsBaromVisibWave heightAir tempDewpointWater temp
2016-Jul-24 09:31N 59°29' E 022°25'2318.9
2016-Jul-24 08:19N 59°36' E 023°07'1418.9
2016-Jul-24 07:33N 59°40' E 023°34'1918.5
2016-Jul-24 06:33N 59°45' E 024°10'1818.3
2016-Jul-24 05:33N 59°49' E 024°45'5618.4
2016-Jul-24 02:31N 60°01' E 026°34'1717.7
2016-Jul-24 01:33N 60°01' E 027°08'1918.9
2016-Jul-24 00:33N 60°11' E 027°41'1818.0
2016-Jul-23 23:33N 60°08' E 028°16'1817.9
2016-Jul-23 22:33N 60°03' E 028°51'1916.6
2016-Jul-23 21:23N 60°01' E 029°29'8 9.8
2016-Jul-23 20:33N 59°59' E 029°45'1111.1
2016-Jul-23 19:33N 59°54' E 030°05'4 3.7
2016-Jul-23 18:32N 59°53' E 030°12'0 0.0
2016-Jul-23 17:32N 59°53' E 030°12'0 0.0
2016-Jul-23 16:31N 59°53' E 030°12'0 0.0
2016-Jul-23 15:31N 59°53' E 030°12'0 0.0
2016-Jul-23 14:31N 59°53' E 030°12'0 0.0
2016-Jul-23 13:28N 59°53' E 030°12'0 0.0
2016-Jul-23 12:31N 59°53' E 030°12'0 0.0
2016-Jul-23 11:31N 59°53' E 030°12'0 0.0
2016-Jul-23 10:31N 59°53' E 030°12'0 0.0
2016-Jul-23 09:31N 59°53' E 030°12'0 0.0
2016-Jul-23 08:31N 59°53' E 030°12'0 0.0
2016-Jul-23 07:31N 59°53' E 030°12'0 0.0
2016-Jul-23 06:31N 59°53' E 030°12'0 0.0
2016-Jul-23 04:31N 59°53' E 030°12'0 0.0
2016-Jul-23 03:31N 59°53' E 030°12'0 0.0
2016-Jul-23 02:31N 59°53' E 030°12'0 0.0
2016-Jul-23 01:31N 59°53' E 030°12'0 0.0
2016-Jul-23 00:31N 59°53' E 030°12'0 0.0
2016-Jul-22 23:31N 59°53' E 030°12'0 0.0
2016-Jul-22 22:31N 59°53' E 030°12'0 0.0
2016-Jul-22 21:31N 59°53' E 030°12'0 0.0
2016-Jul-22 20:28N 59°53' E 030°12'0 0.0
2016-Jul-22 19:33N 59°53' E 030°12'0 0.0
2016-Jul-22 18:33N 59°53' E 030°12'0 0.0
2016-Jul-22 17:33N 59°53' E 030°12'0 0.0
2016-Jul-22 16:32N 59°53' E 030°12'0 0.0
2016-Jul-22 15:33N 59°53' E 030°12'6 5.9
2016-Jul-22 14:33N 59°55' E 030°01'1010.1
2016-Jul-22 13:32N 59°59' E 029°43'2711.3
2016-Jul-22 11:08N 60°01' E 028°48'713.0
2016-Jul-22 10:33N 59°56' E 028°36'1212.0
2016-Jul-22 09:33N 59°46' E 028°24'6 5.3
2016-Jul-22 08:31N 59°41' E 028°24'0 0.1
2016-Jul-22 07:33N 59°40' E 028°24'0 0.0
2016-Jul-22 04:32N 59°40' E 028°24'0 0.0
2016-Jul-22 03:32N 59°40' E 028°24'0 0.0
2016-Jul-22 02:32N 59°40' E 028°24'0 0.0
2016-Jul-22 01:30N 59°40' E 028°24'0 0.0
2016-Jul-22 00:33N 59°40' E 028°24'0 0.0
2016-Jul-21 23:33N 59°40' E 028°24'0 0.0
2016-Jul-21 22:32N 59°40' E 028°24'0 0.0
2016-Jul-21 21:23N 59°40' E 028°24'0 0.1
2016-Jul-21 20:33N 59°41' E 028°24'1 0.8
2016-Jul-21 19:33N 59°41' E 028°24'1010.5
2016-Jul-21 18:33N 59°52' E 028°27'9 9.2
2016-Jul-21 17:33N 60°00' E 028°34'1615.7
2016-Jul-21 16:33N 60°08' E 028°07'1818.0
2016-Jul-21 15:33N 60°07' E 027°31'1919.0
2016-Jul-21 14:34N 59°58' E 026°58'2019.1
2016-Jul-21 13:31N 59°56' E 026°18'4719.7
2016-Jul-21 11:08N 59°46' E 024°47'1119.7
2016-Jul-21 10:33N 59°44' E 024°25'1919.4
2016-Jul-21 09:34N 59°37' E 023°49'1919.4
2016-Jul-21 08:34N 59°31' E 023°12'2219.3
2016-Jul-21 07:25N 59°23' E 022°33'7218.6
2016-Jul-21 03:33N 58°24' E 021°13'1919.1
2016-Jul-21 02:34N 58°06' E 020°59'6519.0
2016-Jul-20 23:10N 57°06' E 020°13'1819.2
2016-Jul-20 22:15N 56°50' E 020°00'5219.4
2016-Jul-20 19:33N 56°02' E 019°24'1919.4
2016-Jul-20 18:33N 55°44' E 019°12'1919.0
2016-Jul-20 17:33N 55°26' E 019°02'1918.8
2016-Jul-20 16:33N 55°07' E 019°04'1818.1
2016-Jul-20 15:33N 54°49' E 019°05'1717.4
2016-Jul-20 14:33N 54°32' E 019°03'1413.8
2016-Jul-20 13:34N 54°24' E 018°43'1 0.8
2016-Jul-20 12:31N 54°23' E 018°43'0 0.0
2016-Jul-20 11:31N 54°23' E 018°43'0 0.0
2016-Jul-20 10:32N 54°23' E 018°43'0 0.0
2016-Jul-20 09:34N 54°23' E 018°43'0 0.0
2016-Jul-20 08:33N 54°23' E 018°43'0 0.0
2016-Jul-20 07:33N 54°23' E 018°43'0 0.0
2016-Jul-20 06:33N 54°23' E 018°43'0 0.0
2016-Jul-20 05:33N 54°23' E 018°43'0 0.0
2016-Jul-20 04:33N 54°23' E 018°43'0 0.0
2016-Jul-20 03:33N 54°23' E 018°43'0 0.0
2016-Jul-20 02:33N 54°23' E 018°43'0 0.0
2016-Jul-20 01:31N 54°23' E 018°43'0 0.0
2016-Jul-20 00:32N 54°23' E 018°43'0 0.0
2016-Jul-19 23:32N 54°23' E 018°43'0 0.0
2016-Jul-19 22:32N 54°23' E 018°43'0 0.0
2016-Jul-19 21:32N 54°23' E 018°43'0 0.0
2016-Jul-19 20:31N 54°23' E 018°43'0 0.0
2016-Jul-19 19:31N 54°23' E 018°43'0 0.0
2016-Jul-19 18:33N 54°23' E 018°43'0 0.0
2016-Jul-19 17:33N 54°23' E 018°43'0 0.0
2016-Jul-19 16:33N 54°23' E 018°43'0 0.0
2016-Jul-19 15:31N 54°23' E 018°43'0 0.0
2016-Jul-19 14:31N 54°23' E 018°43'0 0.0
2016-Jul-19 13:31N 54°23' E 018°43'0 0.0
2016-Jul-19 12:33N 54°23' E 018°43'0 0.0
2016-Jul-19 11:33N 54°23' E 018°43'0 0.0
2016-Jul-19 10:33N 54°23' E 018°43'0 0.0
2016-Jul-19 09:33N 54°23' E 018°43'0 0.0
2016-Jul-19 08:33N 54°23' E 018°43'0 0.0
2016-Jul-19 07:34N 54°23' E 018°43'0 0.0
2016-Jul-19 06:34N 54°23' E 018°43'0 0.0
2016-Jul-19 04:34N 54°23' E 018°43'0 0.0
2016-Jul-19 03:32N 54°23' E 018°43'0 0.0
2016-Jul-19 02:33N 54°23' E 018°43'0 0.0
2016-Jul-19 01:32N 54°23' E 018°43'0 0.0
2016-Jul-19 00:32N 54°23' E 018°43'0 0.0
2016-Jul-18 23:34N 54°23' E 018°43'5 4.8
2016-Jul-18 22:33N 54°26' E 018°50'2 1.7
2016-Jul-18 21:32N 54°28' E 018°50'0 0.0
2016-Jul-18 20:33N 54°28' E 018°50'0 0.0
2016-Jul-18 19:34N 54°28' E 018°50'0 0.0
2016-Jul-18 18:33N 54°28' E 018°49'0 0.0
2016-Jul-18 17:34N 54°27' E 018°49'0 0.0
2016-Jul-18 16:34N 54°27' E 018°49'0 0.0
2016-Jul-18 15:34N 54°27' E 018°49'0 0.0
2016-Jul-18 14:34N 54°27' E 018°49'0 0.0
2016-Jul-18 13:32N 54°27' E 018°49'0 0.0
2016-Jul-18 12:33N 54°27' E 018°49'0 0.1
2016-Jul-18 11:33N 54°28' E 018°49'0 0.0
2016-Jul-18 10:32N 54°28' E 018°49'0 0.0
2016-Jul-18 09:34N 54°28' E 018°49'0 0.1
2016-Jul-18 08:31N 54°28' E 018°50'0 0.0
2016-Jul-18 07:33N 54°28' E 018°50'0 0.0
2016-Jul-18 06:33N 54°28' E 018°50'0 0.1
2016-Jul-18 05:33N 54°28' E 018°50'0 0.0
2016-Jul-18 04:33N 54°28' E 018°50'0 0.0
2016-Jul-18 03:33N 54°28' E 018°50'1 1.4
2016-Jul-18 02:34N 54°28' E 018°52'9 9.0
2016-Jul-18 01:34N 54°34' E 019°03'1010.0
2016-Jul-18 00:34N 54°44' E 019°08'1110.9
2016-Jul-17 23:34N 54°51' E 019°22'1110.9
2016-Jul-17 22:34N 54°59' E 019°35'1210.9
2016-Jul-17 21:26N 55°08' E 019°49'292 5.8
2016-Jul-15 19:26N 59°38' E 023°14'1314.3
2016-Jul-15 18:33N 59°40' E 023°39'1414.3
2016-Jul-15 17:33N 59°42' E 024°07'1514.5
2016-Jul-15 16:33N 59°38' E 024°35'1312.7
2016-Jul-15 15:33N 59°32' E 024°57'1 0.1
2016-Jul-15 03:23N 59°31' E 024°58'910.4
2016-Jul-15 02:34N 59°37' E 024°47'10 9.6
2016-Jul-15 01:34N 59°39' E 024°28'1514.5
2016-Jul-15 00:33N 59°37' E 023°59'1514.9
2016-Jul-14 23:33N 59°34' E 023°31'1514.9
2016-Jul-14 22:33N 59°29' E 023°03'1514.9
2016-Jul-14 21:33N 59°24' E 022°35'1515.1
2016-Jul-14 20:33N 59°15' E 022°12'1515.1
2016-Jul-14 19:33N 59°05' E 021°49'  
Track history (hours):
 
Tides and Currents Weather Stations Pressure Air Temp Water Temp Dewpoint Dewpoint Depression Visibility Wind Speed Wind Dir Waves Ship Positions

Hansa Limburg

Last reported at 2016-Jul-24 09:31 UTC. Time now 2016-Jul-24 18:35 UTC.
Position N 59°29' E 022°25'.

Length 175.5 m; beam 27.4 m; draft 10.9 m.

Type: Ship (hazmat cat A). MMSI: 636090980.

Date/timePositionNaut miles runAvg speedWind from/ knotsBaromVisibWave heightAir tempDewpointWater temp
2016-Jul-24 09:31N 59°29' E 022°25'2318.9
2016-Jul-24 08:19N 59°36' E 023°07'1418.9
2016-Jul-24 07:33N 59°40' E 023°34'1918.5
2016-Jul-24 06:33N 59°45' E 024°10'1818.3
2016-Jul-24 05:33N 59°49' E 024°45'5618.4
2016-Jul-24 02:31N 60°01' E 026°34'1717.7
2016-Jul-24 01:33N 60°01' E 027°08'1918.9
2016-Jul-24 00:33N 60°11' E 027°41'1818.0
2016-Jul-23 23:33N 60°08' E 028°16'1817.9
2016-Jul-23 22:33N 60°03' E 028°51'1916.6
2016-Jul-23 21:23N 60°01' E 029°29'8 9.8
2016-Jul-23 20:33N 59°59' E 029°45'1111.1
2016-Jul-23 19:33N 59°54' E 030°05'4 3.7
2016-Jul-23 18:32N 59°53' E 030°12'0 0.0
2016-Jul-23 17:32N 59°53' E 030°12'0 0.0
2016-Jul-23 16:31N 59°53' E 030°12'0 0.0
2016-Jul-23 15:31N 59°53' E 030°12'0 0.0
2016-Jul-23 14:31N 59°53' E 030°12'0 0.0
2016-Jul-23 13:28N 59°53' E 030°12'0 0.0
2016-Jul-23 12:31N 59°53' E 030°12'0 0.0
2016-Jul-23 11:31N 59°53' E 030°12'0 0.0
2016-Jul-23 10:31N 59°53' E 030°12'0 0.0
2016-Jul-23 09:31N 59°53' E 030°12'0 0.0
2016-Jul-23 08:31N 59°53' E 030°12'0 0.0
2016-Jul-23 07:31N 59°53' E 030°12'0 0.0
2016-Jul-23 06:31N 59°53' E 030°12'0 0.0
2016-Jul-23 04:31N 59°53' E 030°12'0 0.0
2016-Jul-23 03:31N 59°53' E 030°12'0 0.0
2016-Jul-23 02:31N 59°53' E 030°12'0 0.0
2016-Jul-23 01:31N 59°53' E 030°12'0 0.0
2016-Jul-23 00:31N 59°53' E 030°12'0 0.0
2016-Jul-22 23:31N 59°53' E 030°12'0 0.0
2016-Jul-22 22:31N 59°53' E 030°12'0 0.0
2016-Jul-22 21:31N 59°53' E 030°12'0 0.0
2016-Jul-22 20:28N 59°53' E 030°12'0 0.0
2016-Jul-22 19:33N 59°53' E 030°12'0 0.0
2016-Jul-22 18:33N 59°53' E 030°12'0 0.0
2016-Jul-22 17:33N 59°53' E 030°12'0 0.0
2016-Jul-22 16:32N 59°53' E 030°12'0 0.0
2016-Jul-22 15:33N 59°53' E 030°12'6 5.9
2016-Jul-22 14:33N 59°55' E 030°01'1010.1
2016-Jul-22 13:32N 59°59' E 029°43'2711.3
2016-Jul-22 11:08N 60°01' E 028°48'713.0
2016-Jul-22 10:33N 59°56' E 028°36'1212.0
2016-Jul-22 09:33N 59°46' E 028°24'6 5.3
2016-Jul-22 08:31N 59°41' E 028°24'0 0.1
2016-Jul-22 07:33N 59°40' E 028°24'0 0.0
2016-Jul-22 04:32N 59°40' E 028°24'0 0.0
2016-Jul-22 03:32N 59°40' E 028°24'0 0.0
2016-Jul-22 02:32N 59°40' E 028°24'0 0.0
2016-Jul-22 01:30N 59°40' E 028°24'0 0.0
2016-Jul-22 00:33N 59°40' E 028°24'0 0.0
2016-Jul-21 23:33N 59°40' E 028°24'0 0.0
2016-Jul-21 22:32N 59°40' E 028°24'0 0.0
2016-Jul-21 21:23N 59°40' E 028°24'0 0.1
2016-Jul-21 20:33N 59°41' E 028°24'1 0.8
2016-Jul-21 19:33N 59°41' E 028°24'1010.5
2016-Jul-21 18:33N 59°52' E 028°27'9 9.2
2016-Jul-21 17:33N 60°00' E 028°34'1615.7
2016-Jul-21 16:33N 60°08' E 028°07'1818.0
2016-Jul-21 15:33N 60°07' E 027°31'1919.0
2016-Jul-21 14:34N 59°58' E 026°58'2019.1
2016-Jul-21 13:31N 59°56' E 026°18'4719.7
2016-Jul-21 11:08N 59°46' E 024°47'1119.7
2016-Jul-21 10:33N 59°44' E 024°25'1919.4
2016-Jul-21 09:34N 59°37' E 023°49'1919.4
2016-Jul-21 08:34N 59°31' E 023°12'2219.3
2016-Jul-21 07:25N 59°23' E 022°33'7218.6
2016-Jul-21 03:33N 58°24' E 021°13'1919.1
2016-Jul-21 02:34N 58°06' E 020°59'6519.0
2016-Jul-20 23:10N 57°06' E 020°13'1819.2
2016-Jul-20 22:15N 56°50' E 020°00'5219.4
2016-Jul-20 19:33N 56°02' E 019°24'1919.4
2016-Jul-20 18:33N 55°44' E 019°12'1919.0
2016-Jul-20 17:33N 55°26' E 019°02'1918.8
2016-Jul-20 16:33N 55°07' E 019°04'1818.1
2016-Jul-20 15:33N 54°49' E 019°05'1717.4
2016-Jul-20 14:33N 54°32' E 019°03'1413.8
2016-Jul-20 13:34N 54°24' E 018°43'1 0.8
2016-Jul-20 12:31N 54°23' E 018°43'0 0.0
2016-Jul-20 11:31N 54°23' E 018°43'0 0.0
2016-Jul-20 10:32N 54°23' E 018°43'0 0.0
2016-Jul-20 09:34N 54°23' E 018°43'0 0.0
2016-Jul-20 08:33N 54°23' E 018°43'0 0.0
2016-Jul-20 07:33N 54°23' E 018°43'0 0.0
2016-Jul-20 06:33N 54°23' E 018°43'0 0.0
2016-Jul-20 05:33N 54°23' E 018°43'0 0.0
2016-Jul-20 04:33N 54°23' E 018°43'0 0.0
2016-Jul-20 03:33N 54°23' E 018°43'0 0.0
2016-Jul-20 02:33N 54°23' E 018°43'0 0.0
2016-Jul-20 01:31N 54°23' E 018°43'0 0.0
2016-Jul-20 00:32N 54°23' E 018°43'0 0.0
2016-Jul-19 23:32N 54°23' E 018°43'0 0.0
2016-Jul-19 22:32N 54°23' E 018°43'0 0.0
2016-Jul-19 21:32N 54°23' E 018°43'0 0.0
2016-Jul-19 20:31N 54°23' E 018°43'0 0.0
2016-Jul-19 19:31N 54°23' E 018°43'0 0.0
2016-Jul-19 18:33N 54°23' E 018°43'0 0.0
2016-Jul-19 17:33N 54°23' E 018°43'0 0.0
2016-Jul-19 16:33N 54°23' E 018°43'0 0.0
2016-Jul-19 15:31N 54°23' E 018°43'0 0.0
2016-Jul-19 14:31N 54°23' E 018°43'0 0.0
2016-Jul-19 13:31N 54°23' E 018°43'0 0.0
2016-Jul-19 12:33N 54°23' E 018°43'0 0.0
2016-Jul-19 11:33N 54°23' E 018°43'0 0.0
2016-Jul-19 10:33N 54°23' E 018°43'0 0.0
2016-Jul-19 09:33N 54°23' E 018°43'0 0.0
2016-Jul-19 08:33N 54°23' E 018°43'0 0.0
2016-Jul-19 07:34N 54°23' E 018°43'0 0.0
2016-Jul-19 06:34N 54°23' E 018°43'0 0.0
2016-Jul-19 04:34N 54°23' E 018°43'0 0.0
2016-Jul-19 03:32N 54°23' E 018°43'0 0.0
2016-Jul-19 02:33N 54°23' E 018°43'0 0.0
2016-Jul-19 01:32N 54°23' E 018°43'0 0.0
2016-Jul-19 00:32N 54°23' E 018°43'0 0.0
2016-Jul-18 23:34N 54°23' E 018°43'5 4.8
2016-Jul-18 22:33N 54°26' E 018°50'2 1.7
2016-Jul-18 21:32N 54°28' E 018°50'0 0.0
2016-Jul-18 20:33N 54°28' E 018°50'0 0.0
2016-Jul-18 19:34N 54°28' E 018°50'0 0.0
2016-Jul-18 18:33N 54°28' E 018°49'0 0.0
2016-Jul-18 17:34N 54°27' E 018°49'0 0.0
2016-Jul-18 16:34N 54°27' E 018°49'0 0.0
2016-Jul-18 15:34N 54°27' E 018°49'0 0.0
2016-Jul-18 14:34N 54°27' E 018°49'0 0.0
2016-Jul-18 13:32N 54°27' E 018°49'0 0.0
2016-Jul-18 12:33N 54°27' E 018°49'0 0.1
2016-Jul-18 11:33N 54°28' E 018°49'0 0.0
2016-Jul-18 10:32N 54°28' E 018°49'0 0.0
2016-Jul-18 09:34N 54°28' E 018°49'0 0.1
2016-Jul-18 08:31N 54°28' E 018°50'0 0.0
2016-Jul-18 07:33N 54°28' E 018°50'0 0.0
2016-Jul-18 06:33N 54°28' E 018°50'0 0.1
2016-Jul-18 05:33N 54°28' E 018°50'0 0.0
2016-Jul-18 04:33N 54°28' E 018°50'0 0.0
2016-Jul-18 03:33N 54°28' E 018°50'1 1.4
2016-Jul-18 02:34N 54°28' E 018°52'9 9.0
2016-Jul-18 01:34N 54°34' E 019°03'1010.0
2016-Jul-18 00:34N 54°44' E 019°08'1110.9
2016-Jul-17 23:34N 54°51' E 019°22'1110.9
2016-Jul-17 22:34N 54°59' E 019°35'1210.9
2016-Jul-17 21:26N 55°08' E 019°49'292 5.8
2016-Jul-15 19:26N 59°38' E 023°14'1314.3
2016-Jul-15 18:33N 59°40' E 023°39'1414.3
2016-Jul-15 17:33N 59°42' E 024°07'1514.5
2016-Jul-15 16:33N 59°38' E 024°35'1312.7
2016-Jul-15 15:33N 59°32' E 024°57'1 0.1
2016-Jul-15 03:23N 59°31' E 024°58'910.4
2016-Jul-15 02:34N 59°37' E 024°47'10 9.6
2016-Jul-15 01:34N 59°39' E 024°28'1514.5
2016-Jul-15 00:33N 59°37' E 023°59'1514.9
2016-Jul-14 23:33N 59°34' E 023°31'1514.9
2016-Jul-14 22:33N 59°29' E 023°03'1514.9
2016-Jul-14 21:33N 59°24' E 022°35'1515.1
2016-Jul-14 20:33N 59°15' E 022°12'1515.1
2016-Jul-14 19:33N 59°05' E 021°49'  

Dump ship's entire track history